Terminal Aerodrome Forecast
Issued by NWS

Home | Current Version | Previous Version | Text Only | Print | Product List | Glossary On
Versions: 1 2 3 4 5 6 7 8 9 10 11 12 13 14 15 16 17 18 19 20 21
000
FTUS43 KDLH 271128
TAFBRD
TAF
KBRD 271128Z 2712/2812 VRB03KT P6SM SKC
     FM271400 21007KT P6SM SKC
     FM271800 20011G20KT P6SM SCT100
     FM280100 17008KT P6SM BKN100
     FM280300 17010KT P6SM VCSH BKN050
     FM280600 17012G20KT 5SM -RA OVC040=

USA.gov is the U.S. government's official web portal to all federal, state and local government web resources and services.